sensor_id;sensor_type;location;lat;lon;timestamp;P1;P2;P0
82821;PMS5003;72574;46.842;-71.246;2023-11-19T00:01:18;7;6.24;3.76
82821;PMS5003;72574;46.842;-71.246;2023-11-19T00:03:45;11.57;10.57;5.9
82821;PMS5003;72574;46.842;-71.246;2023-11-19T00:06:08;8.48;8.48;5.62
82821;PMS5003;72574;46.842;-71.246;2023-11-19T00:08:35;10.14;9.76;6.52
82821;PMS5003;72574;46.842;-71.246;2023-11-19T00:11:02;7.48;7.48;4.43
82821;PMS5003;72574;46.842;-71.246;2023-11-19T00:13:26;8.9;7.24;3.9
82821;PMS5003;72574;46.842;-71.246;2023-11-19T00:15:53;7.18;5.77;3
82821;PMS5003;72574;46.842;-71.246;2023-11-19T00:18:17;8.67;8.67;4.95
82821;PMS5003;72574;46.842;-71.246;2023-11-19T00:20:43;5.24;4.86;2.52
82821;PMS5003;72574;46.842;-71.246;2023-11-19T00:23:09;5.05;4.29;2.38
82821;PMS5003;72574;46.842;-71.246;2023-11-19T00:25:32;5;5;3.24
82821;PMS5003;72574;46.842;-71.246;2023-11-19T00:27:58;11.14;10;7.62
82821;PMS5003;72574;46.842;-71.246;2023-11-19T00:30:25;5.33;5.19;3.24
82821;PMS5003;72574;46.842;-71.246;2023-11-19T00:32:51;4.18;3.59;2.95
82821;PMS5003;72574;46.842;-71.246;2023-11-19T00:35:18;7.71;7.05;5.33
82821;PMS5003;72574;46.842;-71.246;2023-11-19T00:37:43;3.76;3.76;1
82821;PMS5003;72574;46.842;-71.246;2023-11-19T00:40:09;1.05;1.05;1
82821;PMS5003;72574;46.842;-71.246;2023-11-19T00:42:33;3.38;3.38;2
82821;PMS5003;72574;46.842;-71.246;2023-11-19T00:44:59;2.43;2;2
82821;PMS5003;72574;46.842;-71.246;2023-11-19T00:47:24;3.1;3.1;2
82821;PMS5003;72574;46.842;-71.246;2023-11-19T00:49:50;1.82;1.82;1
82821;PMS5003;72574;46.842;-71.246;2023-11-19T00:52:16;1.9;1.62;1
82821;PMS5003;72574;46.842;-71.246;2023-11-19T00:54:40;3.38;3.14;1.67
82821;PMS5003;72574;46.842;-71.246;2023-11-19T00:57:06;3.9;2.95;1.52
82821;PMS5003;72574;46.842;-71.246;2023-11-19T00:59:30;3.38;3.1;1.24
82821;PMS5003;72574;46.842;-71.246;2023-11-19T01:01:59;1.82;1.82;1.14
82821;PMS5003;72574;46.842;-71.246;2023-11-19T01:04:24;3.29;3.29;1.24
82821;PMS5003;72574;46.842;-71.246;2023-11-19T01:06:47;2.5;1.68;1.55
82821;PMS5003;72574;46.842;-71.246;2023-11-19T01:09:13;3.81;3.81;1
82821;PMS5003;72574;46.842;-71.246;2023-11-19T01:11:39;2.86;2.86;1.81
82821;PMS5003;72574;46.842;-71.246;2023-11-19T01:14:06;4.24;3.29;1.48
82821;PMS5003;72574;46.842;-71.246;2023-11-19T01:16:30;7.62;5.95;3.24
82821;PMS5003;72574;46.842;-71.246;2023-11-19T01:18:56;2.24;2.24;1.1
82821;PMS5003;72574;46.842;-71.246;2023-11-19T01:21:22;2.52;2.52;1.24
82821;PMS5003;72574;46.842;-71.246;2023-11-19T01:23:51;5.09;4.18;2.09
82821;PMS5003;72574;46.842;-71.246;2023-11-19T01:26:17;4.24;2.1;2
82821;PMS5003;72574;46.842;-71.246;2023-11-19T01:28:42;2.81;1.9;1.1
82821;PMS5003;72574;46.842;-71.246;2023-11-19T01:31:07;1.57;1.24;1.1
82821;PMS5003;72574;46.842;-71.246;2023-11-19T01:33:31;4.67;2.86;1.1
82821;PMS5003;72574;46.842;-71.246;2023-11-19T01:35:59;4.71;4.05;1.48
82821;PMS5003;72574;46.842;-71.246;2023-11-19T01:38:21;3.9;3.62;2.24
82821;PMS5003;72574;46.842;-71.246;2023-11-19T01:40:50;3.77;3.77;2
82821;PMS5003;72574;46.842;-71.246;2023-11-19T01:43:30;2.86;2;1
82821;PMS5003;72574;46.842;-71.246;2023-11-19T01:45:40;3.67;1.52;1
82821;PMS5003;72574;46.842;-71.246;2023-11-19T01:48:05;3.24;1.81;1.19
82821;PMS5003;72574;46.842;-71.246;2023-11-19T01:50:30;1.62;1.52;1
82821;PMS5003;72574;46.842;-71.246;2023-11-19T01:52:57;1.67;1.67;0.67
82821;PMS5003;72574;46.842;-71.246;2023-11-19T01:55:21;4;3.29;1.95
82821;PMS5003;72574;46.842;-71.246;2023-11-19T01:57:46;3.86;3.86;2
82821;PMS5003;72574;46.842;-71.246;2023-11-19T02:00:12;5.67;4.52;2.24
82821;PMS5003;72574;46.842;-71.246;2023-11-19T02:02:36;3.81;3.57;2.24
82821;PMS5003;72574;46.842;-71.246;2023-11-19T02:05:04;4.95;4.95;2.38
82821;PMS5003;72574;46.842;-71.246;2023-11-19T02:07:30;8.1;5.38;3.14
82821;PMS5003;72574;46.842;-71.246;2023-11-19T02:09:53;5;3.86;2
82821;PMS5003;72574;46.842;-71.246;2023-11-19T02:12:21;5.48;3.48;2.05
82821;PMS5003;72574;46.842;-71.246;2023-11-19T02:14:45;4.5;4.5;2.14
82821;PMS5003;72574;46.842;-71.246;2023-11-19T02:17:25;6.57;5.52;3.81
82821;PMS5003;72574;46.842;-71.246;2023-11-19T02:19:37;5;5;3.57
82821;PMS5003;72574;46.842;-71.246;2023-11-19T02:22:03;5.76;4.71;2.52
82821;PMS5003;72574;46.842;-71.246;2023-11-19T02:24:27;6.52;6.05;3.38
82821;PMS5003;72574;46.842;-71.246;2023-11-19T02:26:55;6.29;5.48;3.38
82821;PMS5003;72574;46.842;-71.246;2023-11-19T02:29:18;16.4;9.1;4.85
82821;PMS5003;72574;46.842;-71.246;2023-11-19T02:31:45;10.91;7;2.23
82821;PMS5003;72574;46.842;-71.246;2023-11-19T02:34:10;7.9;6.19;4.24
82821;PMS5003;72574;46.842;-71.246;2023-11-19T02:36:36;6.33;5.95;4.95
82821;PMS5003;72574;46.842;-71.246;2023-11-19T02:38:59;9.95;7.86;5
82821;PMS5003;72574;46.842;-71.246;2023-11-19T02:41:24;10;8.33;5.33
82821;PMS5003;72574;46.842;-71.246;2023-11-19T02:43:50;6.1;6.1;5.1
82821;PMS5003;72574;46.842;-71.246;2023-11-19T02:46:18;8.05;7.62;4.29
82821;PMS5003;72574;46.842;-71.246;2023-11-19T02:48:44;8.18;6.5;4
82821;PMS5003;72574;46.842;-71.246;2023-11-19T02:51:07;7.05;5.52;4.52
82821;PMS5003;72574;46.842;-71.246;2023-11-19T02:53:32;11.33;11.33;7.62
82821;PMS5003;72574;46.842;-71.246;2023-11-19T02:56:00;15.19;13.19;7.24
82821;PMS5003;72574;46.842;-71.246;2023-11-19T02:58:25;12.81;12.81;8
82821;PMS5003;72574;46.842;-71.246;2023-11-19T03:00:51;13.1;11.52;8
82821;PMS5003;72574;46.842;-71.246;2023-11-19T03:03:14;13.95;13.19;8.43
82821;PMS5003;72574;46.842;-71.246;2023-11-19T03:05:47;9.45;9.45;5.82
82821;PMS5003;72574;46.842;-71.246;2023-11-19T03:08:13;16.59;10.86;6
82821;PMS5003;72574;46.842;-71.246;2023-11-19T03:10:46;12.86;10.36;6
82821;PMS5003;72574;46.842;-71.246;2023-11-19T03:13:10;11.36;10.45;5.86
82821;PMS5003;72574;46.842;-71.246;2023-11-19T03:15:36;13.1;10.86;7.9
82821;PMS5003;72574;46.842;-71.246;2023-11-19T03:18:15;9.91;8.82;6.68
82821;PMS5003;72574;46.842;-71.246;2023-11-19T03:20:42;10.82;9.18;5.14
82821;PMS5003;72574;46.842;-71.246;2023-11-19T03:23:09;9.82;8.23;5.32
82821;PMS5003;72574;46.842;-71.246;2023-11-19T03:25:35;8.73;7.73;5.55
82821;PMS5003;72574;46.842;-71.246;2023-11-19T03:28:03;8.33;5.95;5
82821;PMS5003;72574;46.842;-71.246;2023-11-19T03:30:32;7.14;5.71;4.76
82821;PMS5003;72574;46.842;-71.246;2023-11-19T03:33:01;10.64;7.36;5.05
82821;PMS5003;72574;46.842;-71.246;2023-11-19T03:35:31;12.09;11.82;7.45
82821;PMS5003;72574;46.842;-71.246;2023-11-19T03:37:59;19.33;10.67;4.95
82821;PMS5003;72574;46.842;-71.246;2023-11-19T03:40:26;9.73;8.77;5.55
82821;PMS5003;72574;46.842;-71.246;2023-11-19T03:42:51;8;7;4.91
82821;PMS5003;72574;46.842;-71.246;2023-11-19T03:45:18;8.36;6.55;4.55
82821;PMS5003;72574;46.842;-71.246;2023-11-19T03:47:43;7.95;7.38;4.24
82821;PMS5003;72574;46.842;-71.246;2023-11-19T03:50:07;9.91;7.95;5.68
82821;PMS5003;72574;46.842;-71.246;2023-11-19T03:52:33;8.68;7.18;4.59
82821;PMS5003;72574;46.842;-71.246;2023-11-19T03:54:59;7.81;6.38;4
82821;PMS5003;72574;46.842;-71.246;2023-11-19T03:57:25;7.14;6.95;4.33
82821;PMS5003;72574;46.842;-71.246;2023-11-19T03:59:50;8.76;7.81;4.1
82821;PMS5003;72574;46.842;-71.246;2023-11-19T04:02:16;10.48;9.19;5.52
82821;PMS5003;72574;46.842;-71.246;2023-11-19T04:04:41;7.71;7.29;4.52
82821;PMS5003;72574;46.842;-71.246;2023-11-19T04:07:05;9.38;8.67;5.24
82821;PMS5003;72574;46.842;-71.246;2023-11-19T04:09:32;9.09;8.68;5.91
82821;PMS5003;72574;46.842;-71.246;2023-11-19T04:11:58;8.48;8.48;5
82821;PMS5003;72574;46.842;-71.246;2023-11-19T04:14:22;12.67;8.9;5
82821;PMS5003;72574;46.842;-71.246;2023-11-19T04:16:50;8;7.14;4.67
82821;PMS5003;72574;46.842;-71.246;2023-11-19T04:19:13;7.62;7.33;4.81
82821;PMS5003;72574;46.842;-71.246;2023-11-19T04:21:39;8.67;7.52;5
82821;PMS5003;72574;46.842;-71.246;2023-11-19T04:24:04;8;6;4.52
82821;PMS5003;72574;46.842;-71.246;2023-11-19T04:26:40;14.14;8.86;4.82
82821;PMS5003;72574;46.842;-71.246;2023-11-19T04:29:07;7.5;5.68;2.82
82821;PMS5003;72574;46.842;-71.246;2023-11-19T04:31:37;10.62;7;4.29
82821;PMS5003;72574;46.842;-71.246;2023-11-19T04:34:03;8.23;8;5
82821;PMS5003;72574;46.842;-71.246;2023-11-19T04:36:30;7.43;7.05;4.57
82821;PMS5003;72574;46.842;-71.246;2023-11-19T04:38:57;11.1;8.9;5.62
82821;PMS5003;72574;46.842;-71.246;2023-11-19T04:41:22;9.05;8.24;5
82821;PMS5003;72574;46.842;-71.246;2023-11-19T04:43:47;15.59;12.36;6.91
82821;PMS5003;72574;46.842;-71.246;2023-11-19T04:46:11;16.33;14.29;8.9
82821;PMS5003;72574;46.842;-71.246;2023-11-19T04:48:38;15.86;14.71;8.38
82821;PMS5003;72574;46.842;-71.246;2023-11-19T04:51:04;14.09;12.36;6.36
82821;PMS5003;72574;46.842;-71.246;2023-11-19T04:53:32;8.76;8.76;5.71
82821;PMS5003;72574;46.842;-71.246;2023-11-19T04:56:07;12.77;11.91;7.64
82821;PMS5003;72574;46.842;-71.246;2023-11-19T05:01:16;14.24;13.24;8.29
82821;PMS5003;72574;46.842;-71.246;2023-11-19T05:03:46;21.75;17.65;11.8
82821;PMS5003;72574;46.842;-71.246;2023-11-19T05:06:12;18.19;15.48;10.29
82821;PMS5003;72574;46.842;-71.246;2023-11-19T05:08:38;24.6;18.15;9.45
82821;PMS5003;72574;46.842;-71.246;2023-11-19T05:11:04;16.2;14.45;9.2
82821;PMS5003;72574;46.842;-71.246;2023-11-19T05:13:30;15.09;13.41;9
82821;PMS5003;72574;46.842;-71.246;2023-11-19T05:16:11;11.43;10.29;5.86
82821;PMS5003;72574;46.842;-71.246;2023-11-19T05:18:37;10.5;8.23;5.23
82821;PMS5003;72574;46.842;-71.246;2023-11-19T05:21:06;11.65;11.25;6.25
82821;PMS5003;72574;46.842;-71.246;2023-11-19T05:23:32;7.59;7.59;3.64
82821;PMS5003;72574;46.842;-71.246;2023-11-19T05:25:58;6.76;6.76;4.14
82821;PMS5003;72574;46.842;-71.246;2023-11-19T05:28:22;8.81;8.81;5.1
82821;PMS5003;72574;46.842;-71.246;2023-11-19T05:30:46;12.29;10.33;5.57
82821;PMS5003;72574;46.842;-71.246;2023-11-19T05:33:15;11.95;9.18;4.64
82821;PMS5003;72574;46.842;-71.246;2023-11-19T05:35:38;10.48;7.14;4
82821;PMS5003;72574;46.842;-71.246;2023-11-19T05:38:04;8.52;7.43;4.33
82821;PMS5003;72574;46.842;-71.246;2023-11-19T05:40:29;7.19;6.62;4.67
82821;PMS5003;72574;46.842;-71.246;2023-11-19T05:42:55;17.48;13;8.19
82821;PMS5003;72574;46.842;-71.246;2023-11-19T05:45:19;14.57;12.67;8.24
82821;PMS5003;72574;46.842;-71.246;2023-11-19T05:47:46;15.52;11.9;8
82821;PMS5003;72574;46.842;-71.246;2023-11-19T05:50:11;16.86;14.76;7.71
82821;PMS5003;72574;46.842;-71.246;2023-11-19T05:52:36;12.38;10;5.95
82821;PMS5003;72574;46.842;-71.246;2023-11-19T05:55:03;10.76;9.24;5.1
82821;PMS5003;72574;46.842;-71.246;2023-11-19T05:57:27;11.55;10.1;5.4
82821;PMS5003;72574;46.842;-71.246;2023-11-19T05:59:54;10.76;9;6.24
82821;PMS5003;72574;46.842;-71.246;2023-11-19T06:02:19;12.55;11.95;5.65
82821;PMS5003;72574;46.842;-71.246;2023-11-19T06:04:45;13.1;11.52;8.81
82821;PMS5003;72574;46.842;-71.246;2023-11-19T06:07:10;11.27;10.55;5.23
82821;PMS5003;72574;46.842;-71.246;2023-11-19T06:09:37;9.9;9.86;6.86
82821;PMS5003;72574;46.842;-71.246;2023-11-19T06:12:02;14.57;12.81;8.9
82821;PMS5003;72574;46.842;-71.246;2023-11-19T06:14:28;12.95;12;8.24
82821;PMS5003;72574;46.842;-71.246;2023-11-19T06:16:54;13.71;12.1;5.1
82821;PMS5003;72574;46.842;-71.246;2023-11-19T06:19:18;14.05;11.38;7.52
82821;PMS5003;72574;46.842;-71.246;2023-11-19T06:21:43;7.43;7.33;4.9
82821;PMS5003;72574;46.842;-71.246;2023-11-19T06:24:10;13.14;9.82;5.91
82821;PMS5003;72574;46.842;-71.246;2023-11-19T06:26:36;19.05;12.35;5.7
82821;PMS5003;72574;46.842;-71.246;2023-11-19T06:28:58;10.52;10;6.67
82821;PMS5003;72574;46.842;-71.246;2023-11-19T06:31:25;13.9;11.52;6.38
82821;PMS5003;72574;46.842;-71.246;2023-11-19T06:33:51;14.57;11.81;6.33
82821;PMS5003;72574;46.842;-71.246;2023-11-19T06:36:15;9.57;9.38;6.48
82821;PMS5003;72574;46.842;-71.246;2023-11-19T06:38:41;22.7;14.8;8.6
82821;PMS5003;72574;46.842;-71.246;2023-11-19T06:41:07;15.41;12.55;8.18
82821;PMS5003;72574;46.842;-71.246;2023-11-19T06:43:33;13.76;10.86;7.05
82821;PMS5003;72574;46.842;-71.246;2023-11-19T06:45:58;17.52;14.71;7.81
82821;PMS5003;72574;46.842;-71.246;2023-11-19T06:48:22;23.15;15.1;8.15
82821;PMS5003;72574;46.842;-71.246;2023-11-19T06:50:50;13.76;13.71;7.43
82821;PMS5003;72574;46.842;-71.246;2023-11-19T06:53:15;14.95;13.62;7.9
82821;PMS5003;72574;46.842;-71.246;2023-11-19T06:55:38;14.9;12.81;8.67
82821;PMS5003;72574;46.842;-71.246;2023-11-19T06:58:06;9.23;8.55;5.14
82821;PMS5003;72574;46.842;-71.246;2023-11-19T07:00:29;16.35;12.15;7.3
82821;PMS5003;72574;46.842;-71.246;2023-11-19T07:02:57;14.19;10.14;6.86
82821;PMS5003;72574;46.842;-71.246;2023-11-19T07:05:22;16.29;15.24;9.67
82821;PMS5003;72574;46.842;-71.246;2023-11-19T07:07:47;15.71;13.1;8.38
82821;PMS5003;72574;46.842;-71.246;2023-11-19T07:10:13;17.33;14.52;7.43
82821;PMS5003;72574;46.842;-71.246;2023-11-19T07:12:37;18.05;15.95;7.71
82821;PMS5003;72574;46.842;-71.246;2023-11-19T07:15:03;15.52;12.52;7.29
82821;PMS5003;72574;46.842;-71.246;2023-11-19T07:17:29;11.95;10.81;6.19
82821;PMS5003;72574;46.842;-71.246;2023-11-19T07:19:53;7.76;7.71;5
82821;PMS5003;72574;46.842;-71.246;2023-11-19T07:22:19;7.43;7.43;5.33
82821;PMS5003;72574;46.842;-71.246;2023-11-19T07:24:46;8.38;8.38;5.1
82821;PMS5003;72574;46.842;-71.246;2023-11-19T07:27:11;9;8.62;5
82821;PMS5003;72574;46.842;-71.246;2023-11-19T07:29:35;8;7.59;4.64
82821;PMS5003;72574;46.842;-71.246;2023-11-19T07:32:02;7.32;6.73;5
82821;PMS5003;72574;46.842;-71.246;2023-11-19T07:34:27;11.1;9.29;5.1
82821;PMS5003;72574;46.842;-71.246;2023-11-19T07:36:54;12.19;8.67;5.38
82821;PMS5003;72574;46.842;-71.246;2023-11-19T07:39:19;10.76;9.81;5.76
82821;PMS5003;72574;46.842;-71.246;2023-11-19T07:41:43;9.67;8.57;5.19
82821;PMS5003;72574;46.842;-71.246;2023-11-19T07:44:10;7.1;7.1;5
82821;PMS5003;72574;46.842;-71.246;2023-11-19T07:46:33;7.52;7.43;5.05
82821;PMS5003;72574;46.842;-71.246;2023-11-19T07:48:59;8.09;7.09;3.73
82821;PMS5003;72574;46.842;-71.246;2023-11-19T07:51:27;7.71;7.71;4.05
82821;PMS5003;72574;46.842;-71.246;2023-11-19T07:53:52;7.95;5.48;3.43
82821;PMS5003;72574;46.842;-71.246;2023-11-19T07:56:15;9.24;6.81;4.9
82821;PMS5003;72574;46.842;-71.246;2023-11-19T07:58:40;7.05;6.38;3.43
82821;PMS5003;72574;46.842;-71.246;2023-11-19T08:01:07;7.14;5.81;3.81
82821;PMS5003;72574;46.842;-71.246;2023-11-19T08:03:33;10;8.38;4.67
82821;PMS5003;72574;46.842;-71.246;2023-11-19T08:05:57;11.5;8.68;3.91
82821;PMS5003;72574;46.842;-71.246;2023-11-19T08:08:23;8.67;8.38;4.24
82821;PMS5003;72574;46.842;-71.246;2023-11-19T08:10:49;5.48;5.05;3.57
82821;PMS5003;72574;46.842;-71.246;2023-11-19T08:13:15;7.52;7.52;3.71
82821;PMS5003;72574;46.842;-71.246;2023-11-19T08:15:39;7.57;7.29;4.14
82821;PMS5003;72574;46.842;-71.246;2023-11-19T08:18:05;7;5.9;3.71
82821;PMS5003;72574;46.842;-71.246;2023-11-19T08:20:29;7.71;6.62;4.24
82821;PMS5003;72574;46.842;-71.246;2023-11-19T08:22:56;7.59;7.59;4.91
82821;PMS5003;72574;46.842;-71.246;2023-11-19T08:25:23;7.9;7.67;2.81
82821;PMS5003;72574;46.842;-71.246;2023-11-19T08:27:48;6;5;3.57
82821;PMS5003;72574;46.842;-71.246;2023-11-19T08:30:11;16.37;10;4.95
82821;PMS5003;72574;46.842;-71.246;2023-11-19T08:32:37;8.05;8.05;5
82821;PMS5003;72574;46.842;-71.246;2023-11-19T08:35:03;7.29;6.76;2.71
82821;PMS5003;72574;46.842;-71.246;2023-11-19T08:37:29;9.38;9.38;4.43
82821;PMS5003;72574;46.842;-71.246;2023-11-19T08:39:53;9.05;7.95;4.82
82821;PMS5003;72574;46.842;-71.246;2023-11-19T08:42:19;5.62;5.62;3.71
82821;PMS5003;72574;46.842;-71.246;2023-11-19T08:44:44;9.52;8.24;4.24
82821;PMS5003;72574;46.842;-71.246;2023-11-19T08:47:11;9.52;8.38;5
82821;PMS5003;72574;46.842;-71.246;2023-11-19T08:49:37;9.24;8.29;4.1
82821;PMS5003;72574;46.842;-71.246;2023-11-19T08:52:03;19.63;10.58;5.26
82821;PMS5003;72574;46.842;-71.246;2023-11-19T08:54:26;6.19;6.19;3.48
82821;PMS5003;72574;46.842;-71.246;2023-11-19T08:56:54;11.24;9.76;6.14
82821;PMS5003;72574;46.842;-71.246;2023-11-19T08:59:17;11.57;8.67;4.38
82821;PMS5003;72574;46.842;-71.246;2023-11-19T09:13:17;11.67;8.71;3.95
82821;PMS5003;72574;46.842;-71.246;2023-11-19T09:13:32;5.82;5.82;3.41
82821;PMS5003;72574;46.842;-71.246;2023-11-19T09:13:42;7.09;5.09;3.41
82821;PMS5003;72574;46.842;-71.246;2023-11-19T09:13:55;7.77;6.27;3.64
82821;PMS5003;72574;46.842;-71.246;2023-11-19T09:14:05;7.59;7.18;4.18
82821;PMS5003;72574;46.842;-71.246;2023-11-19T09:15:29;6.82;6;2.59
82821;PMS5003;72574;46.842;-71.246;2023-11-19T09:17:57;5.19;5.05;2.24
82821;PMS5003;72574;46.842;-71.246;2023-11-19T09:20:19;7.71;5.81;2.67
82821;PMS5003;72574;46.842;-71.246;2023-11-19T09:22:47;7.62;5.81;3.48
82821;PMS5003;72574;46.842;-71.246;2023-11-19T09:25:12;9.05;8.1;2.95
82821;PMS5003;72574;46.842;-71.246;2023-11-19T09:27:37;10.82;6.64;4.09
82821;PMS5003;72574;46.842;-71.246;2023-11-19T09:30:04;6.86;5.24;2.48
82821;PMS5003;72574;46.842;-71.246;2023-11-19T09:32:27;10.71;7.05;5.33
82821;PMS5003;72574;46.842;-71.246;2023-11-19T09:34:53;5.52;5.52;3.48
82821;PMS5003;72574;46.842;-71.246;2023-11-19T09:37:18;7.86;6.71;3.95
82821;PMS5003;72574;46.842;-71.246;2023-11-19T09:39:42;9.33;7.19;4.81
82821;PMS5003;72574;46.842;-71.246;2023-11-19T09:42:09;6.76;5.67;2.67
82821;PMS5003;72574;46.842;-71.246;2023-11-19T09:44:37;9.18;7.45;3.05
82821;PMS5003;72574;46.842;-71.246;2023-11-19T09:47:00;7.86;5.81;2.81
82821;PMS5003;72574;46.842;-71.246;2023-11-19T09:49:26;7.14;6.38;3.76
82821;PMS5003;72574;46.842;-71.246;2023-11-19T09:51:52;9.48;8;3.43
82821;PMS5003;72574;46.842;-71.246;2023-11-19T09:54:17;7.57;6.52;3.81
82821;PMS5003;72574;46.842;-71.246;2023-11-19T09:56:42;7.52;7.52;3.76
82821;PMS5003;72574;46.842;-71.246;2023-11-19T09:59:08;5.9;5.9;4.14
82821;PMS5003;72574;46.842;-71.246;2023-11-19T10:01:34;8.18;7;5.27
82821;PMS5003;72574;46.842;-71.246;2023-11-19T10:03:57;7.95;6.81;2.9
82821;PMS5003;72574;46.842;-71.246;2023-11-19T10:06:24;9.48;8.05;5
82821;PMS5003;72574;46.842;-71.246;2023-11-19T10:08:48;6.62;5.48;3.57
82821;PMS5003;72574;46.842;-71.246;2023-11-19T10:11:15;6.1;6.1;4.14
82821;PMS5003;72574;46.842;-71.246;2023-11-19T10:13:40;7.1;6.05;3.29
82821;PMS5003;72574;46.842;-71.246;2023-11-19T10:16:07;7.76;6.48;3.1
82821;PMS5003;72574;46.842;-71.246;2023-11-19T10:18:36;10.05;7.68;3.41
82821;PMS5003;72574;46.842;-71.246;2023-11-19T10:21:02;9.73;8.41;4.91
82821;PMS5003;72574;46.842;-71.246;2023-11-19T10:23:27;7.14;5.67;4.33
82821;PMS5003;72574;46.842;-71.246;2023-11-19T10:25:52;10.29;7.76;3.38
82821;PMS5003;72574;46.842;-71.246;2023-11-19T10:28:16;10.52;9.43;4.29
82821;PMS5003;72574;46.842;-71.246;2023-11-19T10:30:44;10.1;7.81;4.52
82821;PMS5003;72574;46.842;-71.246;2023-11-19T10:33:11;10.19;9.57;5.62
82821;PMS5003;72574;46.842;-71.246;2023-11-19T10:35:35;24.15;12.5;6.05
82821;PMS5003;72574;46.842;-71.246;2023-11-19T10:37:59;10.43;8.95;4.9
82821;PMS5003;72574;46.842;-71.246;2023-11-19T10:40:37;21.37;14.32;7.68
82821;PMS5003;72574;46.842;-71.246;2023-11-19T10:42:54;15.05;11.76;6.05
82821;PMS5003;72574;46.842;-71.246;2023-11-19T10:45:23;13.76;12.57;7
82821;PMS5003;72574;46.842;-71.246;2023-11-19T10:47:41;10.48;10.33;5.95
82821;PMS5003;72574;46.842;-71.246;2023-11-19T10:50:07;8.43;7.05;5.05
82821;PMS5003;72574;46.842;-71.246;2023-11-19T10:52:33;14.41;12.14;5.27
82821;PMS5003;72574;46.842;-71.246;2023-11-19T10:54:56;15.75;11.45;6.05
82821;PMS5003;72574;46.842;-71.246;2023-11-19T10:57:22;12.86;12.57;6.9
82821;PMS5003;72574;46.842;-71.246;2023-11-19T10:59:47;15.1;11.86;6.05
82821;PMS5003;72574;46.842;-71.246;2023-11-19T11:02:14;15.86;12.29;7.19
82821;PMS5003;72574;46.842;-71.246;2023-11-19T11:04:39;26.56;17.5;9.11
82821;PMS5003;72574;46.842;-71.246;2023-11-19T11:07:03;22.19;18.95;10.1
82821;PMS5003;72574;46.842;-71.246;2023-11-19T11:09:30;17.73;16.09;9.59
82821;PMS5003;72574;46.842;-71.246;2023-11-19T11:11:54;22;17.38;10.05
82821;PMS5003;72574;46.842;-71.246;2023-11-19T11:14:20;15.67;13.62;8.05
82821;PMS5003;72574;46.842;-71.246;2023-11-19T11:16:47;22.05;18.76;9.05
82821;PMS5003;72574;46.842;-71.246;2023-11-19T11:19:11;17;13.71;7.86
82821;PMS5003;72574;46.842;-71.246;2023-11-19T11:21:35;15.29;14.76;8.1
82821;PMS5003;72574;46.842;-71.246;2023-11-19T11:24:08;15.9;12.95;9.1
82821;PMS5003;72574;46.842;-71.246;2023-11-19T11:27:01;24.85;15.65;9
82821;PMS5003;72574;46.842;-71.246;2023-11-19T11:29:10;14.55;13.55;8.77
82821;PMS5003;72574;46.842;-71.246;2023-11-19T11:31:38;15.95;14.52;7.19
82821;PMS5003;72574;46.842;-71.246;2023-11-19T11:34:15;15.62;15.19;7.62
82821;PMS5003;72574;46.842;-71.246;2023-11-19T11:36:23;21.78;13.22;7.94
82821;PMS5003;72574;46.842;-71.246;2023-11-19T11:38:49;14.62;13.38;6.95
82821;PMS5003;72574;46.842;-71.246;2023-11-19T11:41:17;16.19;13.81;6.62
82821;PMS5003;72574;46.842;-71.246;2023-11-19T11:43:46;15.45;13.82;9
82821;PMS5003;72574;46.842;-71.246;2023-11-19T11:46:04;26.89;17.33;7.89
82821;PMS5003;72574;46.842;-71.246;2023-11-19T11:48:31;14.67;11.76;6.24
82821;PMS5003;72574;46.842;-71.246;2023-11-19T11:50:55;15.05;13.45;8.9
82821;PMS5003;72574;46.842;-71.246;2023-11-19T11:53:26;19.14;15.71;10.05
82821;PMS5003;72574;46.842;-71.246;2023-11-19T11:55:59;14.95;14.33;7.33
82821;PMS5003;72574;46.842;-71.246;2023-11-19T11:58:10;19.9;18.67;10.9
82821;PMS5003;72574;46.842;-71.246;2023-11-19T12:00:39;26.9;22.38;10.95
82821;PMS5003;72574;46.842;-71.246;2023-11-19T12:03:01;18.9;15.81;9.76
82821;PMS5003;72574;46.842;-71.246;2023-11-19T12:05:29;22.62;19.95;11.33
82821;PMS5003;72574;46.842;-71.246;2023-11-19T12:07:56;26.29;21.38;11.67
82821;PMS5003;72574;46.842;-71.246;2023-11-19T12:10:17;34;25.16;10.11
82821;PMS5003;72574;46.842;-71.246;2023-11-19T12:12:42;29.38;27.29;14.1
82821;PMS5003;72574;46.842;-71.246;2023-11-19T12:15:16;35.15;29.25;13.25
82821;PMS5003;72574;46.842;-71.246;2023-11-19T12:17:49;26.86;22.41;13.27
82821;PMS5003;72574;46.842;-71.246;2023-11-19T12:20:00;29.14;24.76;13.76
82821;PMS5003;72574;46.842;-71.246;2023-11-19T12:22:25;39.05;31.3;15.05
82821;PMS5003;72574;46.842;-71.246;2023-11-19T12:24:51;34.4;27.8;15.35
82821;PMS5003;72574;46.842;-71.246;2023-11-19T12:27:16;33.76;30.38;13.95
82821;PMS5003;72574;46.842;-71.246;2023-11-19T12:29:42;27.95;26.38;13.71
82821;PMS5003;72574;46.842;-71.246;2023-11-19T12:32:07;42.47;28.68;11.47
82821;PMS5003;72574;46.842;-71.246;2023-11-19T12:34:34;23.95;19.18;11.18
82821;PMS5003;72574;46.842;-71.246;2023-11-19T12:36:56;44.21;27;13.26
82821;PMS5003;72574;46.842;-71.246;2023-11-19T12:39:23;38.05;28.52;10.76
82821;PMS5003;72574;46.842;-71.246;2023-11-19T12:41:53;25.24;22.71;11.86
82821;PMS5003;72574;46.842;-71.246;2023-11-19T12:44:14;30.52;28.57;12.67
82821;PMS5003;72574;46.842;-71.246;2023-11-19T12:46:39;27.86;24.81;12.05
82821;PMS5003;72574;46.842;-71.246;2023-11-19T12:49:04;30.24;27.95;14.76
82821;PMS5003;72574;46.842;-71.246;2023-11-19T12:51:31;38.32;29.26;15.05
82821;PMS5003;72574;46.842;-71.246;2023-11-19T12:53:54;33.3;27.7;15.25
82821;PMS5003;72574;46.842;-71.246;2023-11-19T12:56:21;27.14;24.33;11.95
82821;PMS5003;72574;46.842;-71.246;2023-11-19T12:58:46;29.05;25.52;15.62
82821;PMS5003;72574;46.842;-71.246;2023-11-19T13:01:14;33.33;26.19;13.14
82821;PMS5003;72574;46.842;-71.246;2023-11-19T13:03:36;39.5;28.17;12.78
82821;PMS5003;72574;46.842;-71.246;2023-11-19T13:06:02;29.05;24.9;11.55
82821;PMS5003;72574;46.842;-71.246;2023-11-19T13:08:28;26.41;24.32;12.95
82821;PMS5003;72574;46.842;-71.246;2023-11-19T13:10:55;24.86;22.67;12.52
82821;PMS5003;72574;46.842;-71.246;2023-11-19T13:13:18;32.9;27.45;13.85
82821;PMS5003;72574;46.842;-71.246;2023-11-19T13:15:45;29.29;24.76;12.67
82821;PMS5003;72574;46.842;-71.246;2023-11-19T13:18:09;38.11;31.28;16.44
82821;PMS5003;72574;46.842;-71.246;2023-11-19T13:20:35;31.14;24.95;12.57
82821;PMS5003;72574;46.842;-71.246;2023-11-19T13:23:01;29.48;26.1;13
82821;PMS5003;72574;46.842;-71.246;2023-11-19T13:25:25;41.55;32.5;14.59
82821;PMS5003;72574;46.842;-71.246;2023-11-19T13:27:51;31.52;27.9;16.1
82821;PMS5003;72574;46.842;-71.246;2023-11-19T13:30:16;34.42;26.84;14.37
82821;PMS5003;72574;46.842;-71.246;2023-11-19T13:32:42;32.5;27.25;13.9
82821;PMS5003;72574;46.842;-71.246;2023-11-19T13:35:07;28.48;25.48;13.62
82821;PMS5003;72574;46.842;-71.246;2023-11-19T13:37:33;27.62;26.67;13.57
82821;PMS5003;72574;46.842;-71.246;2023-11-19T13:39:56;29;24.38;12.95
82821;PMS5003;72574;46.842;-71.246;2023-11-19T13:42:25;32.18;29.91;15.64
82821;PMS5003;72574;46.842;-71.246;2023-11-19T13:44:48;42.72;28.39;15.61
82821;PMS5003;72574;46.842;-71.246;2023-11-19T13:47:16;30.19;26.81;14.1
82821;PMS5003;72574;46.842;-71.246;2023-11-19T13:49:41;39.15;28.65;14.4
82821;PMS5003;72574;46.842;-71.246;2023-11-19T13:52:05;38.74;29.26;14.47